createdAt,value
2019-05-09T00:00:03.945Z,10.25
2019-05-09T00:02:34.259Z,10.23
2019-05-09T00:05:03.591Z,10.23
2019-05-09T00:07:33.730Z,10.22
2019-05-09T00:10:04.077Z,10.23
2019-05-09T00:12:33.538Z,10.22
2019-05-09T00:15:04.417Z,10.24
2019-05-09T00:17:33.770Z,10.26
2019-05-09T00:20:04.126Z,10.25
2019-05-09T00:22:33.262Z,10.23
2019-05-09T00:25:03.309Z,10.20
2019-05-09T00:27:33.227Z,10.21
2019-05-09T00:30:03.854Z,10.20
2019-05-09T00:32:36.201Z,10.20
2019-05-09T00:35:10.113Z,10.19
2019-05-09T00:37:56.299Z,10.19
2019-05-09T00:40:24.976Z,10.18
2019-05-09T00:42:56.383Z,10.19
2019-05-09T00:45:38.540Z,10.20
2019-05-09T00:48:07.049Z,10.20
2019-05-09T00:50:35.451Z,10.21
2019-05-09T00:53:03.882Z,10.22
2019-05-09T00:55:33.253Z,10.22
2019-05-09T00:58:04.047Z,10.23
2019-05-09T01:00:33.354Z,10.23
2019-05-09T01:03:03.562Z,10.24
2019-05-09T01:05:34.176Z,10.25
2019-05-09T01:08:04.316Z,10.25
2019-05-09T01:10:34.221Z,10.24
2019-05-09T01:13:03.566Z,10.25
2019-05-09T01:15:33.450Z,10.24
2019-05-09T01:18:04.171Z,10.24
2019-05-09T01:20:33.290Z,10.25
2019-05-09T01:23:03.470Z,10.24
2019-05-09T01:25:33.550Z,10.24
2019-05-09T01:28:03.371Z,10.24
2019-05-09T01:30:33.592Z,10.26
2019-05-09T01:33:13.577Z,10.26
2019-05-09T01:35:43.413Z,10.25
2019-05-09T01:38:14.002Z,10.26
2019-05-09T01:40:43.884Z,10.26
2019-05-09T01:43:13.875Z,10.26
2019-05-09T01:45:43.199Z,10.26
2019-05-09T01:48:13.997Z,10.25
2019-05-09T01:50:43.165Z,10.27
2019-05-09T01:53:13.538Z,10.27
2019-05-09T01:56:00.608Z,10.26
2019-05-09T01:58:31.003Z,10.25
2019-05-09T02:00:59.568Z,10.23
2019-05-09T02:03:28.165Z,10.24
2019-05-09T02:05:57.568Z,10.22
2019-05-09T02:08:25.975Z,10.21
2019-05-09T02:10:54.782Z,10.19
2019-05-09T02:13:23.291Z,10.17
2019-05-09T02:16:11.075Z,10.15
2019-05-09T02:18:41.120Z,10.10
2019-05-09T02:21:11.505Z,10.07
2019-05-09T02:23:39.758Z,10.04
2019-05-09T02:26:08.193Z,10.01
2019-05-09T02:28:36.603Z,9.99
2019-05-09T02:31:05.540Z,9.97
2019-05-09T02:33:34.910Z,9.93
2019-05-09T02:36:03.490Z,9.89
2019-05-09T02:38:31.890Z,9.87
2019-05-09T02:41:00.792Z,9.83
2019-05-09T02:43:29.387Z,9.80
2019-05-09T02:46:04.886Z,9.76
2019-05-09T02:48:33.359Z,9.73
2019-05-09T02:51:01.783Z,9.68
2019-05-09T02:53:30.187Z,9.66
2019-05-09T02:55:58.781Z,9.65
2019-05-09T02:58:28.859Z,9.64
2019-05-09T03:01:01.775Z,9.65
2019-05-09T03:03:34.518Z,9.63
2019-05-09T03:06:03.003Z,9.62
2019-05-09T03:08:31.405Z,9.62
2019-05-09T03:10:59.808Z,9.60
2019-05-09T03:13:29.236Z,9.56
2019-05-09T03:15:59.399Z,9.50
2019-05-09T03:18:28.639Z,9.39
2019-05-09T03:21:04.603Z,9.27
2019-05-09T03:23:33.085Z,9.18
2019-05-09T03:26:01.483Z,9.12
2019-05-09T03:28:49.257Z,9.08
2019-05-09T03:31:19.880Z,9.03
2019-05-09T03:33:50.039Z,8.99
2019-05-09T03:36:18.440Z,8.99
2019-05-09T03:38:47.558Z,9.01
2019-05-09T03:41:17.728Z,9.01
2019-05-09T03:43:48.302Z,9.00
2019-05-09T03:46:30.509Z,8.96
2019-05-09T03:49:03.252Z,8.91
2019-05-09T03:51:31.659Z,8.90
2019-05-09T03:54:00.081Z,8.85
2019-05-09T03:56:32.613Z,8.80
2019-05-09T03:59:01.041Z,8.75
2019-05-09T04:01:29.449Z,8.71
2019-05-09T04:04:09.971Z,8.71
2019-05-09T04:06:39.076Z,8.72
2019-05-09T04:09:08.893Z,8.72
2019-05-09T04:11:38.097Z,8.71
2019-05-09T04:14:11.429Z,8.72
2019-05-09T04:16:39.836Z,8.71
2019-05-09T04:19:08.420Z,8.74
2019-05-09T04:21:51.872Z,8.81
2019-05-09T04:24:20.679Z,8.89
2019-05-09T04:26:50.723Z,8.99
2019-05-09T04:29:19.148Z,9.08
2019-05-09T04:31:48.360Z,9.17
2019-05-09T04:34:18.315Z,9.27
2019-05-09T04:36:48.389Z,9.34
2019-05-09T04:39:23.315Z,9.40
2019-05-09T04:41:48.627Z,9.49
2019-05-09T04:44:21.629Z,9.59
2019-05-09T04:46:49.156Z,9.69
2019-05-09T04:49:19.127Z,9.80
2019-05-09T04:51:48.073Z,9.93
2019-05-09T04:54:17.742Z,10.05
2019-05-09T04:56:47.437Z,10.18
2019-05-09T04:59:17.937Z,10.26
2019-05-09T05:01:53.832Z,10.28
2019-05-09T05:04:24.033Z,10.30
2019-05-09T05:06:52.436Z,10.28
2019-05-09T05:09:21.544Z,10.27
2019-05-09T05:11:50.171Z,10.25
2019-05-09T05:14:21.397Z,10.29
2019-05-09T05:16:53.280Z,10.31
2019-05-09T05:19:21.578Z,10.29
2019-05-09T05:21:49.989Z,10.31
2019-05-09T05:24:20.064Z,10.29
2019-05-09T05:26:48.589Z,10.27
2019-05-09T05:29:17.747Z,10.25
2019-05-09T05:31:47.769Z,10.21
2019-05-09T05:34:27.505Z,10.20
2019-05-09T05:36:58.103Z,10.21
2019-05-09T05:39:28.282Z,10.27
2019-05-09T05:41:57.654Z,10.36
2019-05-09T05:44:28.310Z,10.54
2019-05-09T05:47:03.598Z,10.60
2019-05-09T05:49:32.031Z,10.70
2019-05-09T05:52:00.436Z,10.81
2019-05-09T05:54:28.844Z,10.94
2019-05-09T05:56:57.977Z,11.06
2019-05-09T05:59:28.629Z,11.16
2019-05-09T06:01:58.442Z,11.23
2019-05-09T06:04:27.581Z,11.27
2019-05-09T06:06:58.677Z,11.22
2019-05-09T06:09:28.058Z,11.22
2019-05-09T06:11:57.799Z,11.24
2019-05-09T06:14:28.408Z,11.16
2019-05-09T06:16:58.770Z,11.12
2019-05-09T06:19:28.592Z,11.03
2019-05-09T06:21:57.433Z,10.98
2019-05-09T06:24:28.048Z,11.01
2019-05-09T06:26:58.400Z,11.05
2019-05-09T06:29:28.600Z,11.30
2019-05-09T06:31:58.447Z,11.61
2019-05-09T06:34:27.756Z,11.87
2019-05-09T06:36:58.497Z,12.04
2019-05-09T06:39:28.493Z,12.18
2019-05-09T06:41:57.482Z,12.33
2019-05-09T06:44:28.297Z,12.31
2019-05-09T06:47:01.599Z,12.42
2019-05-09T06:49:32.116Z,12.57
2019-05-09T06:52:00.560Z,12.74
2019-05-09T06:54:29.010Z,12.81
2019-05-09T06:56:58.442Z,12.97
2019-05-09T06:59:28.375Z,13.12
2019-05-09T07:01:58.491Z,13.18
2019-05-09T07:04:43.812Z,13.22
2019-05-09T07:07:20.116Z,13.45
2019-05-09T07:09:53.081Z,13.77
2019-05-09T07:12:21.508Z,13.94
2019-05-09T07:14:49.923Z,14.12
2019-05-09T07:17:18.771Z,13.84
2019-05-09T07:19:48.774Z,13.60
2019-05-09T07:22:19.236Z,13.55
2019-05-09T07:25:06.808Z,13.56
2019-05-09T07:27:32.889Z,13.57
2019-05-09T07:30:02.955Z,13.67
2019-05-09T07:32:38.199Z,13.73
2019-05-09T07:35:08.842Z,13.87
2019-05-09T07:37:37.944Z,13.95
2019-05-09T07:40:08.445Z,13.89
2019-05-09T07:42:39.030Z,14.00
2019-05-09T07:45:08.866Z,14.04
2019-05-09T07:47:38.759Z,13.99
2019-05-09T07:50:08.578Z,14.02
2019-05-09T07:52:38.821Z,14.04
2019-05-09T07:55:08.871Z,13.90
2019-05-09T07:57:45.687Z,13.79
2019-05-09T08:00:08.133Z,13.77
2019-05-09T08:02:38.715Z,13.91
2019-05-09T08:05:08.415Z,14.09
2019-05-09T08:07:38.125Z,14.23
2019-05-09T08:10:10.893Z,14.38
2019-05-09T08:12:38.960Z,14.37
2019-05-09T08:15:16.121Z,14.44
2019-05-09T08:17:38.099Z,14.44
2019-05-09T08:20:07.913Z,14.57
2019-05-09T08:22:41.181Z,14.77
2019-05-09T08:25:08.222Z,15.05
2019-05-09T08:27:37.825Z,15.30
2019-05-09T08:30:08.030Z,15.17
2019-05-09T08:32:37.758Z,15.14
2019-05-09T08:35:08.293Z,15.12
2019-05-09T08:37:38.820Z,15.36
2019-05-09T08:40:08.061Z,15.60
2019-05-09T08:42:37.892Z,15.73
2019-05-09T08:45:17.390Z,15.58
2019-05-09T08:47:38.064Z,15.56
2019-05-09T08:50:10.171Z,15.50
2019-05-09T08:52:38.582Z,15.31
2019-05-09T08:55:08.437Z,15.37
2019-05-09T08:57:37.625Z,15.41
2019-05-09T09:00:08.297Z,15.52
2019-05-09T09:02:37.698Z,15.83
2019-05-09T09:05:08.604Z,16.14
2019-05-09T09:07:38.011Z,16.59
2019-05-09T09:10:08.501Z,16.75
2019-05-09T09:12:38.402Z,16.61
2019-05-09T09:15:08.191Z,16.59
2019-05-09T09:17:38.525Z,16.51
2019-05-09T09:20:07.956Z,16.70
2019-05-09T09:22:37.539Z,16.73
2019-05-09T09:25:07.706Z,16.82
2019-05-09T09:27:38.064Z,16.79
2019-05-09T09:30:19.946Z,16.75
2019-05-09T09:32:38.708Z,16.88
2019-05-09T09:35:08.888Z,16.88
2019-05-09T09:37:47.596Z,17.06
2019-05-09T09:40:08.609Z,17.27
2019-05-09T09:42:39.705Z,17.36
2019-05-09T09:45:08.029Z,17.41
2019-05-09T09:47:39.622Z,17.48
2019-05-09T09:50:08.786Z,17.50
2019-05-09T09:52:38.483Z,17.45
2019-05-09T09:55:09.001Z,17.37
2019-05-09T09:57:37.852Z,17.38
2019-05-09T10:00:24.910Z,17.04
2019-05-09T10:02:53.493Z,17.10
2019-05-09T10:05:21.894Z,17.04
2019-05-09T10:07:50.322Z,17.01
2019-05-09T10:10:35.944Z,16.90
2019-05-09T10:13:05.102Z,16.64
2019-05-09T10:15:35.209Z,16.60
2019-05-09T10:18:07.380Z,16.67
2019-05-09T10:20:38.516Z,16.76
2019-05-09T10:23:13.041Z,17.03
2019-05-09T10:25:38.255Z,17.26
2019-05-09T10:28:08.710Z,17.17
2019-05-09T10:30:38.233Z,16.94
2019-05-09T10:33:09.127Z,17.04
2019-05-09T10:35:39.219Z,16.92
2019-05-09T10:38:08.681Z,16.97
2019-05-09T10:40:39.897Z,16.91
2019-05-09T10:43:35.891Z,17.45
2019-05-09T10:46:15.301Z,17.75
2019-05-09T10:48:43.015Z,17.83
2019-05-09T10:51:11.419Z,17.78
2019-05-09T10:53:39.848Z,17.67
2019-05-09T10:56:08.884Z,17.60
2019-05-09T10:58:37.541Z,17.64
2019-05-09T11:01:09.115Z,17.68
2019-05-09T11:03:37.698Z,17.84
2019-05-09T11:06:08.610Z,17.83
2019-05-09T11:08:38.080Z,17.75
2019-05-09T11:11:09.306Z,17.65
2019-05-09T11:13:38.943Z,17.76
2019-05-09T11:16:07.641Z,18.13
2019-05-09T11:18:36.414Z,18.46
2019-05-09T11:21:04.894Z,18.17
2019-05-09T11:23:33.316Z,17.94
2019-05-09T11:26:01.789Z,17.56
2019-05-09T11:28:30.191Z,17.01
2019-05-09T11:30:58.616Z,16.76
2019-05-09T11:33:27.839Z,16.79
2019-05-09T11:35:58.076Z,16.79
2019-05-09T11:38:32.680Z,16.78
2019-05-09T11:40:57.952Z,16.69
2019-05-09T11:43:26.582Z,16.62
2019-05-09T11:45:55.055Z,16.52
2019-05-09T11:48:23.454Z,16.45
2019-05-09T11:50:51.880Z,16.45
2019-05-09T11:53:20.286Z,16.42
2019-05-09T11:55:48.722Z,16.41
2019-05-09T11:58:18.109Z,16.51
2019-05-09T12:00:48.233Z,16.54
2019-05-09T12:03:18.771Z,16.47
2019-05-09T12:05:47.629Z,16.50
2019-05-09T12:08:17.748Z,16.66
2019-05-09T12:10:46.382Z,17.01
2019-05-09T12:13:14.782Z,17.13
2019-05-09T12:15:43.275Z,17.14
2019-05-09T12:18:11.884Z,17.13
2019-05-09T12:20:40.277Z,17.11
2019-05-09T12:23:08.676Z,17.08
2019-05-09T12:25:38.639Z,17.21
2019-05-09T12:28:07.801Z,17.40
2019-05-09T12:30:37.994Z,17.45
2019-05-09T12:33:08.568Z,17.53
2019-05-09T12:35:38.516Z,17.66
2019-05-09T12:38:08.386Z,17.80
2019-05-09T12:40:38.857Z,17.90
2019-05-09T12:43:09.138Z,17.88
2019-05-09T12:45:38.792Z,17.90
2019-05-09T12:48:14.643Z,17.77
2019-05-09T12:50:38.755Z,17.58
2019-05-09T12:53:07.325Z,17.42
2019-05-09T12:55:38.296Z,17.23
2019-05-09T12:58:09.743Z,17.07
2019-05-09T13:00:38.531Z,17.00
2019-05-09T13:03:08.479Z,17.58
2019-05-09T13:05:38.866Z,18.46
2019-05-09T13:08:10.470Z,19.23
2019-05-09T13:10:37.896Z,19.85
2019-05-09T13:13:08.606Z,19.73
2019-05-09T13:15:40.852Z,19.57
2019-05-09T13:18:21.336Z,19.62
2019-05-09T13:20:39.400Z,19.39
2019-05-09T13:23:08.893Z,18.66
2019-05-09T13:25:38.079Z,18.40
2019-05-09T13:28:08.309Z,18.61
2019-05-09T13:30:37.956Z,18.70
2019-05-09T13:33:10.465Z,18.76
2019-05-09T13:35:39.236Z,18.49
2019-05-09T13:38:08.680Z,18.41
2019-05-09T13:40:36.994Z,18.44
2019-05-09T13:43:05.489Z,18.35
2019-05-09T13:45:33.886Z,18.43
2019-05-09T13:48:02.405Z,19.03
2019-05-09T13:50:30.792Z,19.60
2019-05-09T13:52:59.234Z,19.89
2019-05-09T13:55:27.631Z,19.90
2019-05-09T13:57:59.259Z,19.87
2019-05-09T14:00:28.457Z,19.78
2019-05-09T14:02:56.328Z,19.53
2019-05-09T14:05:24.728Z,19.45
2019-05-09T14:07:55.254Z,19.33
2019-05-09T14:10:23.291Z,19.50
2019-05-09T14:13:05.689Z,19.44
2019-05-09T14:15:21.910Z,19.21
2019-05-09T14:17:53.727Z,18.87
2019-05-09T14:20:20.486Z,18.76
2019-05-09T14:22:49.227Z,18.73
2019-05-09T14:25:19.625Z,18.85
2019-05-09T14:27:49.750Z,18.81
2019-05-09T14:30:19.799Z,19.11
2019-05-09T14:32:49.746Z,19.15
2019-05-09T14:35:18.557Z,19.07
2019-05-09T14:37:48.758Z,18.99
2019-05-09T14:40:17.653Z,18.67
2019-05-09T14:42:46.243Z,18.19
2019-05-09T14:45:14.709Z,17.68
2019-05-09T14:47:43.201Z,17.25
2019-05-09T14:50:12.069Z,16.90
2019-05-09T14:52:40.768Z,16.62
2019-05-09T14:55:09.249Z,16.44
2019-05-09T14:57:38.363Z,16.33
2019-05-09T15:00:08.074Z,16.28
2019-05-09T15:02:38.790Z,16.25
2019-05-09T15:05:09.572Z,16.23
2019-05-09T15:07:38.936Z,16.25
2019-05-09T15:10:08.578Z,16.06
2019-05-09T15:12:39.127Z,15.69
2019-05-09T15:15:08.476Z,15.52
2019-05-09T15:17:37.434Z,15.33
2019-05-09T15:20:08.725Z,15.23
2019-05-09T15:22:38.617Z,15.19
2019-05-09T15:25:08.898Z,15.16
2019-05-09T15:27:38.547Z,15.09
2019-05-09T15:30:07.458Z,15.03
2019-05-09T15:32:37.765Z,15.00
2019-05-09T15:35:08.939Z,15.01
2019-05-09T15:37:38.575Z,14.95
2019-05-09T15:40:08.671Z,14.92
2019-05-09T15:42:38.885Z,14.93
2019-05-09T15:45:08.508Z,14.93
2019-05-09T15:47:37.855Z,15.02
2019-05-09T15:50:18.725Z,15.19
2019-05-09T15:52:40.039Z,15.58
2019-05-09T15:55:09.503Z,16.07
2019-05-09T15:57:38.200Z,16.29
2019-05-09T16:00:10.016Z,16.45
2019-05-09T16:02:39.242Z,16.44
2019-05-09T16:05:10.616Z,16.28
2019-05-09T16:07:38.188Z,16.00
2019-05-09T16:10:08.552Z,15.73
2019-05-09T16:12:38.400Z,15.43
2019-05-09T16:15:07.826Z,15.19
2019-05-09T16:17:39.232Z,15.06
2019-05-09T16:20:08.469Z,14.98
2019-05-09T16:22:39.211Z,14.99
2019-05-09T16:25:08.322Z,15.03
2019-05-09T16:27:37.931Z,15.10
2019-05-09T16:30:08.547Z,15.14
2019-05-09T16:32:37.774Z,15.25
2019-05-09T16:35:08.014Z,15.33
2019-05-09T16:37:56.783Z,15.40
2019-05-09T16:40:08.420Z,15.43
2019-05-09T16:42:38.179Z,15.49
2019-05-09T16:45:08.260Z,15.48
2019-05-09T16:47:36.725Z,15.50
2019-05-09T16:50:09.026Z,15.65
2019-05-09T16:52:40.311Z,15.93
2019-05-09T16:55:09.135Z,16.07
2019-05-09T16:57:37.814Z,16.13
2019-05-09T17:00:09.826Z,16.06
2019-05-09T17:02:38.323Z,16.00
2019-05-09T17:05:08.396Z,15.88
2019-05-09T17:07:38.374Z,15.81
2019-05-09T17:10:08.440Z,15.72
2019-05-09T17:12:36.942Z,15.61
2019-05-09T17:15:08.498Z,15.59
2019-05-09T17:17:38.576Z,15.57
2019-05-09T17:20:08.876Z,15.62
2019-05-09T17:23:08.404Z,15.71
2019-05-09T17:25:28.037Z,15.75
2019-05-09T17:27:56.927Z,15.80
2019-05-09T17:30:28.422Z,15.86
2019-05-09T17:32:58.323Z,15.90
2019-05-09T17:35:27.931Z,15.92
2019-05-09T17:37:56.538Z,15.91
2019-05-09T17:40:24.934Z,15.92
2019-05-09T17:42:53.360Z,15.94
2019-05-09T17:45:21.824Z,15.95
2019-05-09T17:47:50.226Z,15.94
2019-05-09T17:50:18.732Z,15.88
2019-05-09T17:52:48.124Z,15.79
2019-05-09T17:55:18.190Z,15.72
2019-05-09T17:57:47.933Z,15.76
2019-05-09T18:00:21.682Z,16.53
2019-05-09T18:02:48.584Z,17.86
2019-05-09T18:05:17.248Z,18.70
2019-05-09T18:07:45.646Z,18.60
2019-05-09T18:10:14.437Z,17.93
2019-05-09T18:12:42.915Z,17.52
2019-05-09T18:15:12.085Z,18.07
2019-05-09T18:17:40.480Z,18.67
2019-05-09T18:20:08.983Z,18.87
2019-05-09T18:22:37.377Z,18.21
2019-05-09T18:25:08.361Z,17.27
2019-05-09T18:27:37.869Z,16.48
2019-05-09T18:30:07.391Z,15.94
2019-05-09T18:32:38.314Z,15.50
2019-05-09T18:35:27.828Z,15.06
2019-05-09T18:37:58.726Z,14.61
2019-05-09T18:40:28.178Z,14.19
2019-05-09T18:42:58.383Z,13.85
2019-05-09T18:45:28.245Z,13.49
2019-05-09T18:47:58.069Z,13.17
2019-05-09T18:50:26.755Z,12.92
2019-05-09T18:52:55.169Z,12.75
2019-05-09T18:55:24.635Z,12.61
2019-05-09T18:57:53.275Z,12.50
2019-05-09T19:00:22.040Z,12.43
2019-05-09T19:02:50.911Z,12.34
2019-05-09T19:05:20.436Z,12.24
2019-05-09T19:07:48.848Z,12.14
2019-05-09T19:10:17.667Z,12.06
2019-05-09T19:12:46.109Z,11.97
2019-05-09T19:15:16.594Z,11.85
2019-05-09T19:17:52.745Z,11.75
2019-05-09T19:20:37.495Z,11.67
2019-05-09T19:23:06.037Z,11.60
2019-05-09T19:25:35.209Z,11.52
2019-05-09T19:28:03.985Z,11.48
2019-05-09T19:30:32.925Z,11.46
2019-05-09T19:33:01.357Z,11.46
2019-05-09T19:35:29.837Z,11.46
2019-05-09T19:37:58.265Z,11.48
2019-05-09T19:40:26.677Z,11.34
2019-05-09T19:42:55.106Z,11.21
2019-05-09T19:45:23.580Z,11.08
2019-05-09T19:47:52.075Z,10.97
2019-05-09T19:50:20.545Z,10.88
2019-05-09T19:52:48.977Z,10.73
2019-05-09T19:55:17.442Z,10.71
2019-05-09T19:57:45.878Z,10.79
2019-05-09T20:00:15.820Z,10.86
2019-05-09T20:02:44.319Z,10.94
2019-05-09T20:05:12.854Z,10.92
2019-05-09T20:07:41.285Z,10.80
2019-05-09T20:10:11.406Z,10.72
2019-05-09T20:12:41.544Z,10.71
2019-05-09T20:15:11.906Z,10.70
2019-05-09T20:17:40.341Z,10.69
2019-05-09T20:20:09.039Z,10.68
2019-05-09T20:22:50.983Z,10.64
2019-05-09T20:25:07.982Z,10.60
2019-05-09T20:27:36.433Z,10.56
2019-05-09T20:30:06.962Z,10.59
2019-05-09T20:32:35.422Z,10.61
2019-05-09T20:35:04.968Z,10.66
2019-05-09T20:37:33.555Z,10.66
2019-05-09T20:40:02.155Z,10.71
2019-05-09T20:42:30.809Z,10.79
2019-05-09T20:44:59.418Z,10.80
2019-05-09T20:47:28.008Z,10.77
2019-05-09T20:49:56.622Z,10.75
2019-05-09T20:52:25.213Z,10.74
2019-05-09T20:54:53.828Z,10.70
2019-05-09T20:57:22.418Z,10.63
2019-05-09T20:59:51.036Z,10.60
2019-05-09T21:02:19.621Z,10.57
2019-05-09T21:04:48.239Z,10.53
2019-05-09T21:07:16.828Z,10.50
2019-05-09T21:09:45.447Z,10.48
2019-05-09T21:12:14.033Z,10.41
2019-05-09T21:14:42.643Z,10.34
2019-05-09T21:17:11.230Z,10.31
2019-05-09T21:19:39.842Z,10.32
2019-05-09T21:22:08.438Z,10.38
2019-05-09T21:24:37.053Z,10.43
2019-05-09T21:27:05.636Z,10.47
2019-05-09T21:29:34.260Z,10.50
2019-05-09T21:32:02.945Z,10.55
2019-05-09T21:34:31.560Z,10.58
2019-05-09T21:36:59.962Z,10.58
2019-05-09T21:39:28.392Z,10.47
2019-05-09T21:41:56.797Z,10.49
2019-05-09T21:44:25.234Z,10.59
2019-05-09T21:46:53.637Z,10.78
2019-05-09T21:49:22.067Z,10.97
2019-05-09T21:51:50.465Z,11.13
2019-05-09T21:54:18.891Z,11.23
2019-05-09T21:56:47.296Z,11.24
2019-05-09T21:59:15.724Z,11.22
2019-05-09T22:01:44.569Z,11.19
2019-05-09T22:04:13.007Z,11.15
2019-05-09T22:06:41.487Z,11.09
2019-05-09T22:09:10.314Z,11.04
2019-05-09T22:11:38.763Z,10.96
2019-05-09T22:14:07.240Z,10.88
2019-05-09T22:16:35.742Z,10.85
2019-05-09T22:19:04.228Z,10.92
2019-05-09T22:21:32.656Z,10.93
2019-05-09T22:24:01.066Z,10.92
2019-05-09T22:26:29.560Z,10.85
2019-05-09T22:28:57.979Z,10.75
2019-05-09T22:31:26.473Z,10.67
2019-05-09T22:33:54.877Z,10.61
2019-05-09T22:36:23.310Z,10.51
2019-05-09T22:38:51.713Z,10.49
2019-05-09T22:41:20.141Z,10.52
2019-05-09T22:43:48.542Z,10.50
2019-05-09T22:46:16.972Z,10.49
2019-05-09T22:48:45.376Z,10.46
2019-05-09T22:51:13.804Z,10.46
2019-05-09T22:53:42.277Z,10.46
2019-05-09T22:56:10.814Z,10.43
2019-05-09T22:58:39.651Z,10.40
2019-05-09T23:01:08.084Z,10.36
2019-05-09T23:03:36.486Z,10.35
2019-05-09T23:06:05.016Z,10.32
2019-05-09T23:08:33.464Z,10.34
2019-05-09T23:11:01.912Z,10.38
2019-05-09T23:13:31.958Z,10.41
2019-05-09T23:16:00.365Z,10.37
2019-05-09T23:18:28.805Z,10.33
2019-05-09T23:20:57.553Z,10.28
2019-05-09T23:23:30.385Z,10.23
2019-05-09T23:25:59.065Z,10.22
2019-05-09T23:28:28.019Z,10.24
2019-05-09T23:31:00.741Z,10.20
2019-05-09T23:33:30.833Z,10.15
2019-05-09T23:35:59.259Z,10.15
2019-05-09T23:38:27.764Z,10.14
2019-05-09T23:40:56.215Z,10.08
2019-05-09T23:43:24.671Z,10.04
2019-05-09T23:45:53.165Z,10.01
2019-05-09T23:48:21.716Z,9.97
2019-05-09T23:50:50.101Z,9.94
2019-05-09T23:53:23.371Z,9.92
2019-05-09T23:56:09.501Z,9.90
2019-05-09T23:58:55.698Z,9.83
